New Cassel, New York
Current Conditions -  °F | °C
As of 2:53 PM on Thursday 30 Oct 2014 (Local Time) from KFRG Reporting Station
Few Clouds Few Clouds  
Wind Chill: 60°   Ceiling: Unl
Heat Index: 60°   Visibility: 10mi
Dew Point: 36°   Wind: 10mph
Humidity: 41%   Direction: 350°N
Pressure: 29.96"   Gusts: NA
Location:  40.76°N, 73.57°W
Report Text: KFRG 301853Z 35009KT 10SM FEW050 16/02 A2996 RMK AO2 SLP144 T01560022
Loading
Personal Weather Stations






























Interactive Weather Map
Tropical Storm Tracking
New forecast layout! Learn more

10-Day Weather Forecast

Advertisements
Track Severe Weather on mobile